Time,TemperatureF,DewpointF,PressureIn,WindDirection,WindDirectionDegrees,WindSpeedMPH,WindSpeedGustMPH,Humidity,HourlyPrecipIn,Conditions,Clouds,dailyrainin,SoftwareType,DateUTC
2014-01-19 00:11:00,32.0,16.0,-100.00,NW,310,2.0,5.0,50,-99.99,,,-99.99,,2014-01-19 08:11:00,
2014-01-19 02:12:00,31.0,15.0,-100.00,NW,305,1.0,2.0,52,-99.99,,,-99.99,,2014-01-19 10:12:00,
2014-01-19 02:32:00,29.0,15.0,-100.00,North,-999,0.0,1.0,55,-99.99,,,-99.99,,2014-01-19 10:32:00,
2014-01-19 02:52:00,30.0,15.0,-100.00,WNW,295,1.0,2.0,54,-99.99,,,-99.99,,2014-01-19 10:52:00,
2014-01-19 03:12:00,29.0,15.0,-100.00,North,-999,0.0,1.0,55,-99.99,,,-99.99,,2014-01-19 11:12:00,
2014-01-19 03:22:00,29.0,15.0,-100.00,North,-999,0.0,1.0,55,-99.99,,,-99.99,,2014-01-19 11:22:00,
2014-01-19 03:53:00,31.0,17.0,-100.00,NW,305,1.0,1.0,55,-99.99,,,-99.99,,2014-01-19 11:53:00,
2014-01-19 04:02:00,31.0,17.0,-100.00,NW,305,1.0,1.0,55,-99.99,,,-99.99,,2014-01-19 12:02:00,
2014-01-19 11:52:00,46.0,21.0,-100.00,NW,320,2.0,6.0,37,-99.99,,,-99.99,,2014-01-19 19:52:00,
2014-01-19 12:11:00,46.0,21.0,-100.00,WNW,285,4.0,7.0,37,-99.99,,,-99.99,,2014-01-19 20:11:00,
2014-01-19 13:11:00,47.0,21.0,-100.00,WNW,295,4.0,7.0,35,-99.99,,,-99.99,,2014-01-19 21:11:00,
2014-01-19 14:12:00,54.0,21.0,-100.00,North,350,3.0,6.0,27,-99.99,,,-99.99,,2014-01-19 22:12:00,
2014-01-19 14:52:00,48.0,21.0,-100.00,NW,320,2.0,6.0,33,-99.99,,,-99.99,,2014-01-19 22:52:00,
2014-01-19 15:02:00,48.0,21.0,-100.00,NW,320,2.0,6.0,33,-99.99,,,-99.99,,2014-01-19 23:02:00,
2014-01-19 15:52:00,49.0,21.0,-100.00,NW,310,2.0,7.0,32,-99.99,,,-99.99,,2014-01-19 23:52:00,
2014-01-19 16:02:00,49.0,21.0,-100.00,NW,310,2.0,7.0,32,-99.99,,,-99.99,,2014-01-20 00:02:00,
2014-01-19 16:21:00,48.0,21.0,-100.00,NW,325,1.0,2.0,34,-99.99,,,-99.99,,2014-01-20 00:21:00,
2014-01-19 16:32:00,48.0,21.0,-100.00,NW,325,1.0,2.0,34,-99.99,,,-99.99,,2014-01-20 00:32:00,
2014-01-19 17:52:00,41.0,20.0,-100.00,NW,320,1.0,3.0,42,-99.99,,,-99.99,,2014-01-20 01:52:00,
2014-01-19 18:11:00,40.0,20.0,-100.00,North,-999,0.0,1.0,43,-99.99,,,-99.99,,2014-01-20 02:11:00,
2014-01-19 22:12:00,31.0,20.0,-100.00,North,-999,0.0,1.0,62,-99.99,,,-99.99,,2014-01-20 06:12:00,
2014-01-19 22:42:00,31.0,20.0,-100.00,NW,320,1.0,1.0,62,-99.99,,,-99.99,,2014-01-20 06:42:00,